Terminal Aerodrome Forecast
Issued by NWS Cleveland, OH

Home | Current Version | Previous Version | Graphics & Text | Print | Product List | Glossary On
Versions: 1 2 3 4 5 6 7 8 9 10 11 12 13 14 15 16 17 18 19
103
FTUS41 KCLE 171740
TAFTOL
TAF
KTOL 171740Z 1718/1818 27010G20KT P6SM VCSH BKN040
     FM180200 27005KT P6SM SCT035
     FM181000 VRB03KT P6SM SKC
     FM181400 10005KT P6SM SKC=

USA.gov is the U.S. government's official web portal to all federal, state and local government web resources and services.